Nadi International Airport Nadi FJ
ICAO: NFFN
IATA: NAN
Category: Medium
Scheduled Services: Yes

Elevation: 59 ft
TransAlt. 11000 ft.

Airport Communications:
RDO:346.7
FIS:126.7
APP:119.1
TRML INFO:127.9
GND:118.1
TWR:118.1

NFFN Zoom In..

If you have problems with the map follow the link
https://www.worldairports.se/pages/airport.php?
ICAO=NFFN

Runways:

(A) RW 02 length 10518 ft width 148 ft
ILS 109.90 / hdg 24

(B) RW 09 length 7001 ft width 148 ft
---- / hdg 91

(C) RW 20 length 10518 ft width 148 ft
---- / hdg 204

(D) RW 27 length 7001 ft width 148 ft
---- / hdg 271

Location; NFFN
Day. 21 / Time. 12.00 Zulu
* QNH: 1009
* Temperature: 24° c. 75.2°f.
* Wind from: 150° Speed 05 kn.
Dewpoint: 20° c.
Visibility: 10 km or more.
Clouds: Scattered 2800 ft.
Clouds: Scattered 4800 ft.
No significant changes expected in the near future.

NFFN 211200Z 15005KT 9999 SCT028 SCT048 24/20 Q1009 NOSIG


Wind From 150°
Speed 05 kn.

 
 
jpsmedia worldairports.se 2020   terms of use